createdAt,value
2023-04-10T00:00:06.775Z,157836.75
2023-04-10T00:02:54.150Z,157834.09
2023-04-10T00:05:22.005Z,157812.78
2023-04-10T00:07:49.053Z,157807.53
2023-04-10T00:10:16.909Z,157794.22
2023-04-10T00:12:43.978Z,157783.56
2023-04-10T00:15:11.539Z,157775.59
2023-04-10T00:17:39.046Z,157775.59
2023-04-10T00:20:07.158Z,157765.00
2023-04-10T00:22:34.278Z,157754.34
2023-04-10T00:25:01.678Z,157717.16
2023-04-10T00:27:28.877Z,157693.22
2023-04-10T00:29:56.441Z,157697.22
2023-04-10T00:32:24.082Z,157698.53
2023-04-10T00:34:51.665Z,157703.88
2023-04-10T00:37:19.012Z,157668.00
2023-04-10T00:39:46.356Z,157690.56
2023-04-10T00:42:13.609Z,157690.56
2023-04-10T00:44:41.564Z,157686.56
2023-04-10T00:47:08.647Z,157695.91
2023-04-10T00:49:36.293Z,157707.88
2023-04-10T00:52:03.520Z,157702.53
2023-04-10T00:54:31.774Z,157697.22
2023-04-10T00:56:59.018Z,157671.94
2023-04-10T00:59:26.648Z,157652.06
2023-04-10T01:01:53.874Z,157625.50
2023-04-10T01:04:22.644Z,157593.59
2023-04-10T01:07:00.692Z,157584.31
2023-04-10T01:09:59.236Z,157576.34
2023-04-10T01:12:57.975Z,157583.00
2023-04-10T01:15:29.443Z,157590.94
2023-04-10T01:18:18.576Z,157590.94
2023-04-10T01:20:46.078Z,157576.34
2023-04-10T01:23:25.541Z,157568.38
2023-04-10T01:25:57.161Z,157543.13
2023-04-10T01:28:49.323Z,157560.38
2023-04-10T01:31:21.528Z,157552.41
2023-04-10T01:33:51.071Z,157541.81
2023-04-10T01:36:41.851Z,157517.88
2023-04-10T01:39:09.897Z,157536.50
2023-04-10T01:41:38.762Z,157529.84
2023-04-10T01:44:06.406Z,157527.22
2023-04-10T01:46:34.311Z,157523.22
2023-04-10T01:49:02.649Z,157517.88
2023-04-10T01:51:31.442Z,157516.56
2023-04-10T01:54:01.673Z,157504.66
2023-04-10T01:56:29.707Z,157474.06
2023-04-10T01:58:57.374Z,157482.03
2023-04-10T02:01:29.722Z,157486.03
2023-04-10T02:03:59.340Z,157468.75
2023-04-10T02:06:50.071Z,157466.13
2023-04-10T02:09:29.406Z,157464.81
2023-04-10T02:12:07.225Z,157455.53
2023-04-10T02:14:37.314Z,157448.88
2023-04-10T02:17:05.099Z,157432.91
2023-04-10T02:19:33.222Z,157427.63
2023-04-10T02:22:00.829Z,157414.38
2023-04-10T02:24:28.504Z,157401.09
2023-04-10T02:26:56.568Z,157409.03
2023-04-10T02:29:23.864Z,157397.09
2023-04-10T02:31:51.341Z,157406.34
2023-04-10T02:34:19.771Z,157403.72
2023-04-10T02:36:47.149Z,157399.75
2023-04-10T02:39:14.478Z,157391.75
2023-04-10T02:41:48.802Z,157394.44
2023-04-10T02:44:16.338Z,157387.81
2023-04-10T02:46:44.575Z,157383.78
2023-04-10T02:49:12.978Z,157382.47
2023-04-10T02:51:40.715Z,157383.78
2023-04-10T02:54:07.799Z,157367.88
2023-04-10T02:56:36.517Z,157358.63
2023-04-10T02:59:03.843Z,157347.97
2023-04-10T03:01:32.239Z,157336.00
2023-04-10T03:04:00.512Z,157333.38
2023-04-10T03:06:31.852Z,157334.69
2023-04-10T03:08:59.506Z,157329.41
2023-04-10T03:11:28.281Z,157326.75
2023-04-10T03:13:58.313Z,157328.06
2023-04-10T03:16:26.567Z,157337.38
2023-04-10T03:18:54.057Z,157330.75
2023-04-10T03:21:22.078Z,157322.78
2023-04-10T03:23:49.761Z,157317.47
2023-04-10T03:26:17.178Z,157318.78
2023-04-10T03:28:44.413Z,157309.50
2023-04-10T03:31:12.662Z,157294.91
2023-04-10T03:33:42.485Z,157302.88
2023-04-10T03:36:11.623Z,157302.88
2023-04-10T03:38:38.981Z,157304.19
2023-04-10T03:41:09.251Z,157305.50
2023-04-10T03:43:36.734Z,157271.00
2023-04-10T03:46:05.826Z,157244.44
2023-04-10T03:48:36.560Z,157233.88
2023-04-10T03:51:04.149Z,157196.72
2023-04-10T03:53:36.203Z,157182.09
2023-04-10T03:56:08.732Z,157179.47
2023-04-10T03:58:36.698Z,157192.72
2023-04-10T04:01:05.455Z,157187.41
2023-04-10T04:03:39.669Z,157184.78
2023-04-10T04:06:27.518Z,157174.13
2023-04-10T04:09:21.895Z,157172.81
2023-04-10T04:12:08.193Z,157170.19
2023-04-10T04:14:53.724Z,157190.09
2023-04-10T04:17:37.342Z,157196.72
2023-04-10T04:20:06.247Z,157198.03
2023-04-10T04:22:51.954Z,157203.38
2023-04-10T04:25:39.343Z,157228.53
2023-04-10T04:28:30.453Z,157225.91
2023-04-10T04:31:16.839Z,157241.81
2023-04-10T04:34:04.693Z,157256.41
2023-04-10T04:36:50.641Z,157277.63
2023-04-10T04:39:36.496Z,157306.81
2023-04-10T04:42:21.869Z,157336.00
2023-04-10T04:45:15.520Z,157363.88
2023-04-10T04:48:01.036Z,157366.56
2023-04-10T04:50:47.136Z,157395.75
2023-04-10T04:53:37.637Z,157448.88
2023-04-10T04:56:25.735Z,157512.59
2023-04-10T04:59:19.240Z,157578.97
2023-04-10T05:02:05.702Z,157656.03
2023-04-10T05:04:51.784Z,157734.41
2023-04-10T05:07:29.779Z,157806.19
2023-04-10T05:10:17.384Z,157873.94
2023-04-10T05:13:08.002Z,157984.31
2023-04-10T05:15:45.427Z,158089.38
2023-04-10T05:18:31.697Z,158215.78
2023-04-10T05:21:07.376Z,158320.91
2023-04-10T05:23:44.821Z,158427.41
2023-04-10T05:26:28.880Z,158524.63
2023-04-10T05:29:14.918Z,158615.19
2023-04-10T05:32:00.667Z,158673.78
2023-04-10T05:34:46.554Z,158700.44
2023-04-10T05:37:34.123Z,158707.09
2023-04-10T05:40:22.201Z,158727.09
2023-04-10T05:43:08.589Z,158740.41
2023-04-10T05:45:54.531Z,158777.72
2023-04-10T05:48:42.070Z,158787.09
2023-04-10T05:51:21.135Z,158768.34
2023-04-10T05:54:11.503Z,158765.72
2023-04-10T05:56:48.837Z,158792.41
2023-04-10T05:59:39.195Z,158787.09
2023-04-10T06:02:30.292Z,158789.78
2023-04-10T06:04:57.819Z,158827.06
2023-04-10T06:07:25.636Z,158865.72
2023-04-10T06:09:52.966Z,158921.69
2023-04-10T06:12:20.641Z,159016.38
2023-04-10T06:14:48.347Z,159133.72
2023-04-10T06:17:21.388Z,159208.44
2023-04-10T06:19:49.035Z,159295.19
2023-04-10T06:22:18.121Z,159431.38
2023-04-10T06:24:45.456Z,159512.78
2023-04-10T06:27:12.988Z,159620.97
2023-04-10T06:29:40.947Z,159726.56
2023-04-10T06:32:08.431Z,159837.41
2023-04-10T06:34:38.190Z,159896.25
2023-04-10T06:37:08.099Z,159928.31
2023-04-10T06:39:37.554Z,159977.75
2023-04-10T06:42:05.034Z,160016.56
2023-04-10T06:44:55.931Z,160064.69
2023-04-10T06:47:24.827Z,160027.22
2023-04-10T06:49:52.222Z,159977.75
2023-04-10T06:52:19.859Z,159975.09
2023-04-10T06:54:47.076Z,160049.94
2023-04-10T06:57:14.544Z,160087.47
2023-04-10T06:59:42.143Z,160096.81
2023-04-10T07:02:09.660Z,160179.72
2023-04-10T07:04:37.057Z,160242.59
2023-04-10T07:07:05.408Z,160294.75
2023-04-10T07:09:32.541Z,160277.38
2023-04-10T07:12:00.197Z,160322.84
2023-04-10T07:14:27.361Z,160367.00
2023-04-10T07:16:54.796Z,160400.50
2023-04-10T07:19:21.945Z,160391.16
2023-04-10T07:21:50.293Z,160443.34
2023-04-10T07:24:17.980Z,160499.53
2023-04-10T07:26:46.376Z,160486.16
2023-04-10T07:29:14.278Z,160431.28
2023-04-10T07:31:42.085Z,160407.19
2023-04-10T07:34:11.326Z,160474.09
2023-04-10T07:36:38.991Z,160451.34
2023-04-10T07:39:06.255Z,160525.00
2023-04-10T07:41:33.828Z,160499.53
2023-04-10T07:44:01.232Z,160510.28
2023-04-10T07:46:28.728Z,160451.34
2023-04-10T07:48:56.180Z,160432.66
2023-04-10T07:51:24.041Z,160456.72
2023-04-10T07:53:51.473Z,160516.94
2023-04-10T07:56:19.725Z,160562.47
2023-04-10T07:58:47.582Z,160545.03
2023-04-10T08:01:15.920Z,160416.56
2023-04-10T08:03:45.233Z,160290.72
2023-04-10T08:06:13.064Z,160259.97
2023-04-10T08:08:41.232Z,160256.00
2023-04-10T08:11:23.592Z,160273.34
2023-04-10T08:13:52.124Z,160285.41
2023-04-10T08:16:24.083Z,160213.13
2023-04-10T08:18:53.168Z,160207.81
2023-04-10T08:21:22.344Z,160205.13
2023-04-10T08:23:57.134Z,160170.34
2023-04-10T08:26:25.623Z,160245.25
2023-04-10T08:28:54.464Z,160324.19
2023-04-10T08:31:23.617Z,160338.91
2023-04-10T08:33:52.149Z,160367.00
2023-04-10T08:36:20.644Z,160384.47
2023-04-10T08:38:48.764Z,160420.59
2023-04-10T08:41:18.182Z,160483.50
2023-04-10T08:43:46.433Z,160484.81
2023-04-10T08:46:15.146Z,160519.63
2023-04-10T08:49:03.934Z,160554.44
2023-04-10T08:51:40.078Z,160561.13
2023-04-10T08:54:08.665Z,160549.06
2023-04-10T08:56:36.340Z,160559.81
2023-04-10T08:59:03.818Z,160617.38
2023-04-10T09:01:31.655Z,160591.91
2023-04-10T09:03:59.932Z,160638.78
2023-04-10T09:06:27.749Z,160664.19
2023-04-10T09:08:55.085Z,160638.78
2023-04-10T09:11:22.460Z,160614.66
2023-04-10T09:13:49.639Z,160594.56
2023-04-10T09:16:17.090Z,160566.50
2023-04-10T09:18:50.049Z,160553.13
2023-04-10T09:21:19.574Z,160534.34
2023-04-10T09:23:48.364Z,160579.84
2023-04-10T09:26:29.851Z,160555.78
2023-04-10T09:29:02.297Z,160542.38
2023-04-10T09:31:34.554Z,160518.31
2023-04-10T09:34:23.487Z,160531.69
2023-04-10T09:37:03.323Z,160529.00
2023-04-10T09:39:43.166Z,160507.56
2023-04-10T09:42:14.942Z,160488.88
2023-04-10T09:44:43.049Z,160467.41
2023-04-10T09:47:23.177Z,160487.50
2023-04-10T09:50:01.002Z,160551.72
2023-04-10T09:52:30.279Z,160534.34
2023-04-10T09:55:04.055Z,160595.94
2023-04-10T09:57:33.057Z,160591.91
2023-04-10T10:00:02.168Z,160581.22
2023-04-10T10:02:37.196Z,160637.47
2023-04-10T10:05:05.592Z,160652.19
2023-04-10T10:07:33.209Z,160681.63
2023-04-10T10:10:03.177Z,160625.41
2023-04-10T10:12:37.263Z,160561.13
2023-04-10T10:15:26.202Z,160514.28
2023-04-10T10:17:56.541Z,160531.69
2023-04-10T10:20:25.602Z,160567.84
2023-04-10T10:22:53.082Z,160606.63
2023-04-10T10:25:21.081Z,160638.78
2023-04-10T10:27:50.303Z,160625.41
2023-04-10T10:30:28.793Z,160653.50
2023-04-10T10:32:59.119Z,160665.59
2023-04-10T10:35:29.326Z,160653.50
2023-04-10T10:38:00.853Z,160696.41
2023-04-10T10:40:37.056Z,160687.06
2023-04-10T10:43:34.276Z,160641.44
2023-04-10T10:46:07.783Z,160622.69
2023-04-10T10:48:35.188Z,160642.78
2023-04-10T10:51:03.639Z,160703.13
2023-04-10T10:53:46.870Z,160800.91
2023-04-10T10:56:20.024Z,160787.50
2023-04-10T10:58:49.022Z,160717.84
2023-04-10T11:01:16.869Z,160713.81
2023-04-10T11:03:47.209Z,160740.59
2023-04-10T11:06:21.929Z,160771.38
2023-04-10T11:08:51.612Z,160754.00
2023-04-10T11:11:27.376Z,160766.06
2023-04-10T11:13:57.729Z,160729.91
2023-04-10T11:16:44.103Z,160682.97
2023-04-10T11:19:19.055Z,160669.56
2023-04-10T11:22:08.330Z,160701.78
2023-04-10T11:24:54.815Z,160658.88
2023-04-10T11:27:41.795Z,160632.09
2023-04-10T11:30:29.153Z,160695.09
2023-04-10T11:32:56.992Z,160709.81
2023-04-10T11:35:26.006Z,160758.03
2023-04-10T11:38:07.842Z,160780.78
2023-04-10T11:40:35.483Z,160786.16
2023-04-10T11:43:21.524Z,160818.28
2023-04-10T11:45:49.182Z,160842.44
2023-04-10T11:48:17.458Z,160802.22
2023-04-10T11:50:44.936Z,160770.06
2023-04-10T11:53:21.791Z,160812.91
2023-04-10T11:55:49.224Z,160886.63
2023-04-10T11:58:35.281Z,160930.81
2023-04-10T12:01:04.513Z,160942.91
2023-04-10T12:03:37.186Z,160944.22
2023-04-10T12:06:07.688Z,160996.53
2023-04-10T12:08:36.438Z,161035.41
2023-04-10T12:11:04.123Z,161028.72
2023-04-10T12:13:32.291Z,160999.22
2023-04-10T12:16:05.682Z,161007.28
2023-04-10T12:18:33.210Z,160933.47
2023-04-10T12:21:01.074Z,160849.06
2023-04-10T12:23:29.542Z,160799.50
2023-04-10T12:26:16.480Z,160786.16
2023-04-10T12:28:58.145Z,160845.09
2023-04-10T12:31:37.094Z,160885.28
2023-04-10T12:34:05.766Z,160925.44
2023-04-10T12:36:35.311Z,160948.22
2023-04-10T12:39:04.182Z,161000.56
2023-04-10T12:41:33.855Z,161023.34
2023-04-10T12:44:12.457Z,161063.56
2023-04-10T12:46:41.431Z,161102.41
2023-04-10T12:49:16.060Z,161142.63
2023-04-10T12:51:47.598Z,161208.31
2023-04-10T12:54:34.960Z,161204.31
2023-04-10T12:57:04.215Z,161146.69
2023-04-10T12:59:31.718Z,161142.63
2023-04-10T13:01:59.420Z,161158.72
2023-04-10T13:04:27.167Z,161118.53
2023-04-10T13:06:54.800Z,161177.50
2023-04-10T13:09:22.440Z,161114.47
2023-04-10T13:11:52.184Z,161070.25
2023-04-10T13:14:19.770Z,161089.00
2023-04-10T13:16:47.272Z,161087.66
2023-04-10T13:19:14.520Z,161115.81
2023-04-10T13:21:41.905Z,161095.69
2023-04-10T13:24:09.152Z,160996.53
2023-04-10T13:26:36.474Z,160914.75
2023-04-10T13:29:03.727Z,160863.88
2023-04-10T13:31:31.348Z,160816.94
2023-04-10T13:33:58.463Z,160815.63
2023-04-10T13:36:26.936Z,160787.50
2023-04-10T13:38:54.547Z,160782.13
2023-04-10T13:41:23.772Z,160796.84
2023-04-10T13:43:50.994Z,160827.66
2023-04-10T13:46:18.844Z,160879.91
2023-04-10T13:48:45.971Z,160926.78
2023-04-10T13:51:13.327Z,160948.22
2023-04-10T13:53:40.775Z,161008.59
2023-04-10T13:56:08.667Z,161034.09
2023-04-10T13:58:35.986Z,161070.25
2023-04-10T14:01:03.602Z,161030.03
2023-04-10T14:03:31.291Z,161008.59
2023-04-10T14:05:58.739Z,161016.63
2023-04-10T14:08:25.868Z,161024.66
2023-04-10T14:10:53.402Z,161034.09
2023-04-10T14:13:20.960Z,160996.53
2023-04-10T14:15:48.470Z,160933.47
2023-04-10T14:18:18.425Z,160874.53
2023-04-10T14:20:45.927Z,160862.47
2023-04-10T14:23:18.415Z,160866.50
2023-04-10T14:25:46.551Z,160861.16
2023-04-10T14:28:17.992Z,160865.19
2023-04-10T14:30:46.233Z,160846.41
2023-04-10T14:33:13.348Z,160830.34
2023-04-10T14:35:41.172Z,160850.44
2023-04-10T14:38:08.448Z,160892.00
2023-04-10T14:40:36.977Z,160936.19
2023-04-10T14:43:04.216Z,160954.91
2023-04-10T14:45:32.683Z,160965.66
2023-04-10T14:47:59.940Z,160948.22
2023-04-10T14:50:27.572Z,160910.72
2023-04-10T14:52:54.706Z,160913.44
2023-04-10T14:55:22.045Z,160916.09
2023-04-10T14:57:49.179Z,160909.38
2023-04-10T15:00:17.003Z,160902.69
2023-04-10T15:02:45.274Z,160859.81
2023-04-10T15:05:13.449Z,160791.47
2023-04-10T15:07:40.574Z,160764.72
2023-04-10T15:10:10.640Z,160755.31
2023-04-10T15:12:38.110Z,160735.22
2023-04-10T15:15:06.521Z,160729.91
2023-04-10T15:17:33.818Z,160693.75
2023-04-10T15:20:01.227Z,160696.41
2023-04-10T15:22:29.537Z,160699.06
2023-04-10T15:24:57.037Z,160693.75
2023-04-10T15:27:25.016Z,160687.06
2023-04-10T15:29:52.445Z,160664.19
2023-04-10T15:32:19.698Z,160682.97
2023-04-10T15:34:47.167Z,160701.78
2023-04-10T15:37:14.347Z,160704.44
2023-04-10T15:39:41.721Z,160737.94
2023-04-10T15:42:09.028Z,160735.22
2023-04-10T15:44:36.456Z,160719.16
2023-04-10T15:47:03.836Z,160751.34
2023-04-10T15:49:37.835Z,160776.75
2023-04-10T15:52:06.712Z,160790.16
2023-04-10T15:54:35.047Z,160816.94
2023-04-10T15:57:03.783Z,160835.72
2023-04-10T15:59:32.821Z,160847.75
2023-04-10T16:01:59.955Z,160885.28
2023-04-10T16:04:27.787Z,160881.25
2023-04-10T16:06:56.694Z,160865.19
2023-04-10T16:09:26.646Z,160882.59
2023-04-10T16:11:55.021Z,160849.06
2023-04-10T16:14:22.815Z,160869.19
2023-04-10T16:16:51.142Z,160794.19
2023-04-10T16:19:18.561Z,160791.47
2023-04-10T16:21:45.960Z,160774.09
2023-04-10T16:24:13.484Z,160737.94
2023-04-10T16:26:40.761Z,160729.91
2023-04-10T16:29:08.203Z,160712.47
2023-04-10T16:31:35.562Z,160652.19
2023-04-10T16:34:03.458Z,160656.19
2023-04-10T16:36:58.236Z,160645.50
2023-04-10T16:39:25.869Z,160649.47
2023-04-10T16:41:53.176Z,160641.44
2023-04-10T16:44:20.741Z,160640.13
2023-04-10T16:46:47.974Z,160606.63
2023-04-10T16:49:15.732Z,160606.63
2023-04-10T16:51:42.876Z,160590.59
2023-04-10T16:54:10.489Z,160566.50
2023-04-10T16:56:37.642Z,160534.34
2023-04-10T16:59:05.249Z,160518.31
2023-04-10T17:01:35.230Z,160470.13
2023-04-10T17:04:02.712Z,160451.34
2023-04-10T17:06:30.092Z,160417.88
2023-04-10T17:08:58.077Z,160396.47
2023-04-10T17:11:25.496Z,160371.03
2023-04-10T17:13:52.825Z,160363.00
2023-04-10T17:16:20.121Z,160312.19
2023-04-10T17:18:48.927Z,160274.69
2023-04-10T17:21:16.256Z,160243.94
2023-04-10T17:23:43.839Z,160221.19
2023-04-10T17:26:15.968Z,160203.78
2023-04-10T17:28:45.298Z,160167.69
2023-04-10T17:31:13.430Z,160143.63
2023-04-10T17:33:43.732Z,160116.88
2023-04-10T17:36:12.642Z,160098.13
2023-04-10T17:38:42.113Z,160062.03
2023-04-10T17:41:10.015Z,160024.56
2023-04-10T17:43:37.736Z,159973.78
2023-04-10T17:46:05.839Z,159951.00
2023-04-10T17:48:34.564Z,159925.66
2023-04-10T17:51:06.721Z,159908.25
2023-04-10T17:53:34.216Z,159885.53
2023-04-10T17:56:01.827Z,159874.88
2023-04-10T17:58:29.584Z,159873.50
2023-04-10T18:00:56.902Z,159836.09
2023-04-10T18:03:24.610Z,159820.06
2023-04-10T18:05:52.020Z,159804.03
2023-04-10T18:08:19.805Z,159818.75
2023-04-10T18:10:47.199Z,159804.03
2023-04-10T18:13:14.791Z,159769.31
2023-04-10T18:15:42.162Z,159745.22
2023-04-10T18:18:09.924Z,159714.50
2023-04-10T18:20:37.270Z,159686.47
2023-04-10T18:23:06.549Z,159643.66
2023-04-10T18:25:34.666Z,159632.97
2023-04-10T18:30:32.638Z,159600.94
2023-04-10T18:33:00.166Z,159584.88
2023-04-10T18:35:28.280Z,159552.84
2023-04-10T18:37:57.166Z,159544.84
2023-04-10T18:40:24.664Z,159518.13
2023-04-10T18:42:52.055Z,159470.06
2023-04-10T18:45:19.796Z,159436.66
2023-04-10T18:47:47.191Z,159405.97
2023-04-10T18:50:14.573Z,159397.97
2023-04-10T18:52:42.075Z,159377.94
2023-04-10T18:55:09.549Z,159376.63
2023-04-10T18:57:37.267Z,159373.97
2023-04-10T19:00:06.911Z,159360.63
2023-04-10T19:02:34.659Z,159341.94
2023-04-10T19:05:02.196Z,159329.91
2023-04-10T19:07:30.045Z,159309.88
2023-04-10T19:09:57.327Z,159289.91
2023-04-10T19:12:24.954Z,159259.13
2023-04-10T19:14:52.112Z,159227.13
2023-04-10T19:17:21.896Z,159199.13
2023-04-10T19:19:49.265Z,159149.75
2023-04-10T19:22:17.251Z,159128.41
2023-04-10T19:24:44.561Z,159115.06
2023-04-10T19:27:12.413Z,159096.38
2023-04-10T19:29:39.730Z,159085.75
2023-04-10T19:32:07.249Z,159052.38
2023-04-10T19:34:34.591Z,159040.38
2023-04-10T19:37:02.440Z,159033.69
2023-04-10T19:39:29.544Z,159041.69
2023-04-10T19:41:57.738Z,159049.69
2023-04-10T19:44:24.963Z,159032.38
2023-04-10T19:46:52.425Z,159004.38
2023-04-10T19:49:19.823Z,158968.38
2023-04-10T19:51:47.630Z,158928.34
2023-04-10T19:54:14.759Z,158872.38
2023-04-10T19:56:42.747Z,158853.75
2023-04-10T19:59:10.080Z,158827.06
2023-04-10T20:01:37.739Z,158812.41
2023-04-10T20:04:05.267Z,158805.75
2023-04-10T20:06:33.241Z,158792.41
2023-04-10T20:09:00.816Z,158760.38
2023-04-10T20:11:30.701Z,158764.38
2023-04-10T20:13:58.130Z,158751.06
2023-04-10T20:16:27.037Z,158728.41
2023-04-10T20:18:55.608Z,158695.09
2023-04-10T20:21:23.415Z,158675.09
2023-04-10T20:23:50.901Z,158647.13
2023-04-10T20:26:18.574Z,158617.81
2023-04-10T20:28:45.751Z,158584.50
2023-04-10T20:31:13.328Z,158568.56
2023-04-10T20:33:40.949Z,158555.22
2023-04-10T20:36:08.952Z,158547.25
2023-04-10T20:38:36.734Z,158531.28
2023-04-10T20:41:04.529Z,158482.00
2023-04-10T20:43:32.200Z,158447.38
2023-04-10T20:46:07.989Z,158430.03
2023-04-10T20:48:38.708Z,158400.78
2023-04-10T20:51:06.687Z,158395.44
2023-04-10T20:53:34.175Z,158386.13
2023-04-10T20:56:03.051Z,158374.13
2023-04-10T20:58:32.078Z,158358.19
2023-04-10T21:00:59.475Z,158360.88
2023-04-10T21:03:26.786Z,158339.53
2023-04-10T21:05:54.309Z,158340.91
2023-04-10T21:08:21.967Z,158339.53
2023-04-10T21:10:49.522Z,158328.91
2023-04-10T21:13:16.836Z,158332.91
2023-04-10T21:15:44.184Z,158328.91
2023-04-10T21:18:11.508Z,158323.56
2023-04-10T21:20:39.314Z,158315.59
2023-04-10T21:23:06.500Z,158302.28
2023-04-10T21:25:35.432Z,158304.97
2023-04-10T21:28:02.759Z,158292.97
2023-04-10T21:30:30.433Z,158300.94
2023-04-10T21:32:57.846Z,158290.28
2023-04-10T21:35:25.438Z,158274.31
2023-04-10T21:37:58.905Z,158261.00
2023-04-10T21:40:34.317Z,158243.75
2023-04-10T21:43:02.431Z,158211.78
2023-04-10T21:45:30.952Z,158217.13
2023-04-10T21:47:59.987Z,158199.84
2023-04-10T21:50:27.503Z,158190.50
2023-04-10T21:52:54.723Z,158185.22
2023-04-10T21:55:22.161Z,158170.53
2023-04-10T21:57:49.210Z,158151.94
2023-04-10T22:00:17.088Z,158130.59
2023-04-10T22:02:45.153Z,158090.69
2023-04-10T22:05:15.573Z,158069.41
2023-04-10T22:07:42.888Z,158058.78
2023-04-10T22:10:10.462Z,158046.81
2023-04-10T22:12:37.791Z,158029.50
2023-04-10T22:15:07.915Z,158006.91
2023-04-10T22:17:35.098Z,158000.25
2023-04-10T22:20:02.469Z,158009.59
2023-04-10T22:22:29.668Z,157985.63
2023-04-10T22:24:57.011Z,157994.91
2023-04-10T22:27:24.220Z,157990.97
2023-04-10T22:30:02.158Z,157980.28
2023-04-10T22:32:31.050Z,157982.97
2023-04-10T22:34:59.669Z,157969.69
2023-04-10T22:37:27.693Z,157964.34
2023-04-10T22:39:56.384Z,157968.38
2023-04-10T22:42:24.294Z,157956.38
2023-04-10T22:44:51.737Z,157937.75
2023-04-10T22:47:19.177Z,157900.53
2023-04-10T22:49:46.620Z,157893.91
2023-04-10T22:52:13.727Z,157888.56
2023-04-10T22:54:41.072Z,157871.31
2023-04-10T22:57:08.553Z,157873.94
2023-04-10T22:59:37.086Z,157863.34
2023-04-10T23:02:04.516Z,157850.03
2023-04-10T23:04:32.151Z,157846.03
2023-04-10T23:06:59.357Z,157835.44
2023-04-10T23:09:26.809Z,157847.34
2023-04-10T23:11:53.949Z,157839.38
2023-04-10T23:14:21.474Z,157830.09
2023-04-10T23:16:49.618Z,157834.09
2023-04-10T23:19:18.517Z,157811.47
2023-04-10T23:21:45.866Z,157836.75
2023-04-10T23:24:13.398Z,157806.19
2023-04-10T23:26:40.712Z,157791.53
2023-04-10T23:29:08.428Z,157782.25
2023-04-10T23:31:35.696Z,157758.34
2023-04-10T23:34:03.707Z,157714.47
2023-04-10T23:36:31.736Z,157673.31
2023-04-10T23:38:59.478Z,157690.56
2023-04-10T23:41:26.846Z,157695.91
2023-04-10T23:43:54.598Z,157691.88
2023-04-10T23:46:22.070Z,157703.88
2023-04-10T23:48:49.763Z,157685.25
2023-04-10T23:51:17.055Z,157662.66
2023-04-10T23:53:44.882Z,157671.94
2023-04-10T23:56:12.375Z,157661.34
2023-04-10T23:58:40.066Z,157670.63
